Charles de Gaulle International Airport

LFPG · Val d'Oise, Île-de-France, 法国

罗盘
风向 的 Charles de Gaulle International Airport 8L/26R
风: 2 kt, 1 beaufort


2 kt
改变
0 ft 1.000 2.000 3.000 4.000 5.000
CAVOK
METAR LFPG 090800Z VRB02KT CAVOK M02/M05 Q1033 NOSIG

METAR Charles de Gaulle International Airport - LFPG/CDG

Charles de Gaulle International Airport是,法国中的大型机场。 该机场有5条跑道: 8L/26R, 8R/26L, 9L/27R, 9R/27L 和 9/27. 该领域的国际民航组织标志是LFPG 它的国际航空运输协会代码是CDG.

这份报告是针对2023年2月9日 09:00, 当地时间在Charles de Gaulle International Airport进行的。

机场观察

可变方向的风很小或没有风。

天气为CAVOK。这意味着在5.000 ft或MSA(最低安全高度)以下(以较高者为准)以下没有云。这也意味着没有观测到积雨云或高耸的积云,可见度为10 km 或者更多或更高。此外,不会有雾,降雨或其他重要天气。

温度为-2 °C,阵风为-5 °C。 露点为-5 °C,相对湿度为80%。 海平面上的气压为1033 hPa (QNH)。

白天

今天,太阳从08:08升起,在17:59降落。 这适用于Charles de Gaulle International Airport,世界夏令时可能有所不同。 当地时间与世界标准时间之间的时差为+1 小时。 当前,没有夏令时有效。

公司介绍

本场上唯一已知的公司是Air France。

体会

到Vliegles.nl去找飞行课程,跳伞和其他飞行体验。 浏览页面,了解Charles de Gaulle International Airport附近所有可用的活动。 你也可以使用搜索功能来寻找你所在地附近的特定飞行课程、跳伞或其他飞行体验。

跑道

Id 标题 侧风 逆风 侧风 %
8L/26R 085°-265° 2 kt 100 %
8R/26L 085°-265° 2 kt 100 %
9L/27R 085°-265° 2 kt 100 %
9R/27L 086°-266° 2 kt 100 %
9/27 086°-266° 2 kt 100 %

逆风成分最大的方向会被突出显示,并用于横风计算。 这并不一定意味着这个方向在使用。

温度 & 天气

温度 -2 °C
露点 -5 °C
相对湿度 80%
风寒 -5 °C
Kp-index 2 (0-9)

白天

日出
08:08
中午
13:03
日落
17:59 (8:26)

小工具

你想在你的网站上有一个关于Charles de Gaulle International Airport的当前航空天气(METAR)的小部件吗?

显示HTML代码

我们和第三方通过cookies跟踪您在我们网站上的互联网行为。如果你继续,我们认为你同意我们的饼干政策